sensor_id;sensor_type;location;lat;lon;timestamp;pressure;altitude;pressure_sealevel;temperature;humidity
50226;BME280;36113;50.742;6.432;2023-05-23T00:00:04;98867.41;;;13.69;81.96
50226;BME280;36113;50.742;6.432;2023-05-23T00:02:29;98932.50;;;14.10;81.89
50226;BME280;36113;50.742;6.432;2023-05-23T00:04:55;98934.00;;;14.21;81.82
50226;BME280;36113;50.742;6.432;2023-05-23T00:07:22;98879.06;;;13.98;80.75
50226;BME280;36113;50.742;6.432;2023-05-23T00:09:48;98935.22;;;14.34;80.69
50226;BME280;36113;50.742;6.432;2023-05-23T00:12:13;98919.69;;;14.29;80.84
50226;BME280;36113;50.742;6.432;2023-05-23T00:14:38;98875.69;;;14.06;80.36
50226;BME280;36113;50.742;6.432;2023-05-23T00:17:04;98932.94;;;14.41;79.88
50226;BME280;36113;50.742;6.432;2023-05-23T00:19:30;98910.16;;;14.26;80.38
50226;BME280;36113;50.742;6.432;2023-05-23T00:21:55;98920.03;;;14.22;80.04
50226;BME280;36113;50.742;6.432;2023-05-23T00:24:21;98916.34;;;14.32;79.95
50226;BME280;36113;50.742;6.432;2023-05-23T00:26:46;98926.41;;;14.37;79.71
50226;BME280;36113;50.742;6.432;2023-05-23T00:29:11;98900.16;;;14.17;79.54
50226;BME280;36113;50.742;6.432;2023-05-23T00:31:41;98924.44;;;14.42;79.35
50226;BME280;36113;50.742;6.432;2023-05-23T00:34:07;98914.09;;;14.39;79.08
50226;BME280;36113;50.742;6.432;2023-05-23T00:36:32;98915.09;;;14.43;79.38
50226;BME280;36113;50.742;6.432;2023-05-23T00:39:01;98913.34;;;14.34;79.38
50226;BME280;36113;50.742;6.432;2023-05-23T00:41:29;98941.03;;;14.27;79.61
50226;BME280;36113;50.742;6.432;2023-05-23T00:43:55;98932.09;;;14.21;79.95
50226;BME280;36113;50.742;6.432;2023-05-23T00:46:22;98903.19;;;14.15;79.75
50226;BME280;36113;50.742;6.432;2023-05-23T00:48:47;98928.31;;;14.17;80.33
50226;BME280;36113;50.742;6.432;2023-05-23T00:51:13;98854.19;;;13.76;80.38
50226;BME280;36113;50.742;6.432;2023-05-23T00:53:38;98842.31;;;13.61;79.99
50226;BME280;36113;50.742;6.432;2023-05-23T00:56:04;98924.25;;;14.15;80.19
50226;BME280;36113;50.742;6.432;2023-05-23T00:58:30;98873.72;;;13.88;80.21
50226;BME280;36113;50.742;6.432;2023-05-23T01:00:56;98807.34;;;13.39;80.22
50226;BME280;36113;50.742;6.432;2023-05-23T01:03:21;98883.66;;;13.79;80.49
50226;BME280;36113;50.742;6.432;2023-05-23T01:05:47;98898.31;;;13.88;80.49
50226;BME280;36113;50.742;6.432;2023-05-23T01:08:13;98869.81;;;13.70;79.91
50226;BME280;36113;50.742;6.432;2023-05-23T01:10:39;98904.44;;;13.80;80.49
50226;BME280;36113;50.742;6.432;2023-05-23T01:16:08;98891.28;;;13.58;81.41
50226;BME280;36113;50.742;6.432;2023-05-23T01:21:17;98897.16;;;13.46;81.66
50226;BME280;36113;50.742;6.432;2023-05-23T01:26:30;98911.28;;;13.48;82.10
50226;BME280;36113;50.742;6.432;2023-05-23T01:29:21;98918.31;;;13.59;82.03
50226;BME280;36113;50.742;6.432;2023-05-23T01:31:52;98918.94;;;13.51;82.47
50226;BME280;36113;50.742;6.432;2023-05-23T01:34:18;98912.06;;;13.54;82.27
50226;BME280;36113;50.742;6.432;2023-05-23T01:36:48;98856.94;;;13.22;81.78
50226;BME280;36113;50.742;6.432;2023-05-23T01:39:14;98922.38;;;13.62;81.50
50226;BME280;36113;50.742;6.432;2023-05-23T01:41:39;98925.31;;;13.71;81.10
50226;BME280;36113;50.742;6.432;2023-05-23T01:44:05;98855.53;;;13.25;81.08
50226;BME280;36113;50.742;6.432;2023-05-23T01:46:31;98928.38;;;13.64;81.03
50226;BME280;36113;50.742;6.432;2023-05-23T01:48:59;98929.94;;;13.70;81.24
50226;BME280;36113;50.742;6.432;2023-05-23T01:51:25;98933.97;;;13.78;80.58
50226;BME280;36113;50.742;6.432;2023-05-23T01:53:51;98938.44;;;13.69;80.71
50226;BME280;36113;50.742;6.432;2023-05-23T01:56:17;98918.81;;;13.61;80.69
50226;BME280;36113;50.742;6.432;2023-05-23T01:58:43;98952.09;;;13.69;81.03
50226;BME280;36113;50.742;6.432;2023-05-23T02:01:09;98952.97;;;13.64;80.88
50226;BME280;36113;50.742;6.432;2023-05-23T02:03:35;98943.50;;;13.51;80.92
50226;BME280;36113;50.742;6.432;2023-05-23T02:06:00;98907.13;;;13.21;80.82
50226;BME280;36113;50.742;6.432;2023-05-23T02:08:25;98958.78;;;13.52;80.48
50226;BME280;36113;50.742;6.432;2023-05-23T02:10:51;98951.97;;;13.50;80.32
50226;BME280;36113;50.742;6.432;2023-05-23T02:13:16;98923.91;;;13.10;80.56
50226;BME280;36113;50.742;6.432;2023-05-23T02:15:41;98968.22;;;13.36;80.91
50226;BME280;36113;50.742;6.432;2023-05-23T02:18:07;98957.03;;;13.37;80.15
50226;BME280;36113;50.742;6.432;2023-05-23T02:20:32;98973.59;;;13.46;80.02
50226;BME280;36113;50.742;6.432;2023-05-23T02:22:57;98976.34;;;13.46;79.68
50226;BME280;36113;50.742;6.432;2023-05-23T02:25:23;98925.56;;;13.05;79.79
50226;BME280;36113;50.742;6.432;2023-05-23T02:27:48;98936.16;;;13.12;79.90
50226;BME280;36113;50.742;6.432;2023-05-23T02:30:13;98975.28;;;13.37;79.83
50226;BME280;36113;50.742;6.432;2023-05-23T02:32:39;98987.34;;;13.36;79.11
50226;BME280;36113;50.742;6.432;2023-05-23T02:35:04;98981.88;;;13.36;78.86
50226;BME280;36113;50.742;6.432;2023-05-23T02:37:30;98979.19;;;13.31;78.65
50226;BME280;36113;50.742;6.432;2023-05-23T02:39:55;98934.69;;;12.91;78.87
50226;BME280;36113;50.742;6.432;2023-05-23T02:42:21;98808.16;;;12.08;78.98
50226;BME280;36113;50.742;6.432;2023-05-23T02:44:46;98913.41;;;12.88;78.77
50226;BME280;36113;50.742;6.432;2023-05-23T02:47:12;98973.78;;;13.20;78.30
50226;BME280;36113;50.742;6.432;2023-05-23T02:49:37;98984.16;;;13.18;77.81
50226;BME280;36113;50.742;6.432;2023-05-23T02:52:03;98987.75;;;13.14;77.65
50226;BME280;36113;50.742;6.432;2023-05-23T02:54:28;98972.81;;;13.01;77.68
50226;BME280;36113;50.742;6.432;2023-05-23T02:56:53;99000.59;;;13.08;78.14
50226;BME280;36113;50.742;6.432;2023-05-23T02:59:20;98970.13;;;12.96;78.41
50226;BME280;36113;50.742;6.432;2023-05-23T03:01:46;98988.34;;;13.05;78.50
50226;BME280;36113;50.742;6.432;2023-05-23T03:04:11;98966.06;;;12.93;78.38
50226;BME280;36113;50.742;6.432;2023-05-23T03:06:38;98991.56;;;13.13;78.63
50226;BME280;36113;50.742;6.432;2023-05-23T03:09:04;98936.16;;;12.78;78.28
50226;BME280;36113;50.742;6.432;2023-05-23T03:11:29;98912.25;;;12.59;78.72
50226;BME280;36113;50.742;6.432;2023-05-23T03:13:54;99005.50;;;13.11;78.70
50226;BME280;36113;50.742;6.432;2023-05-23T03:16:21;99002.25;;;13.09;78.87
50226;BME280;36113;50.742;6.432;2023-05-23T03:18:46;98999.03;;;12.97;79.71
50226;BME280;36113;50.742;6.432;2023-05-23T03:21:11;99010.47;;;13.04;79.58
50226;BME280;36113;50.742;6.432;2023-05-23T03:23:37;98990.31;;;12.95;79.75
50226;BME280;36113;50.742;6.432;2023-05-23T03:26:02;98951.75;;;12.67;79.88
50226;BME280;36113;50.742;6.432;2023-05-23T03:28:29;98996.09;;;12.88;80.70
50226;BME280;36113;50.742;6.432;2023-05-23T03:30:55;98968.88;;;12.78;80.27
50226;BME280;36113;50.742;6.432;2023-05-23T03:33:20;99002.34;;;12.94;80.49
50226;BME280;36113;50.742;6.432;2023-05-23T03:35:45;98948.22;;;12.61;80.62
50226;BME280;36113;50.742;6.432;2023-05-23T03:38:11;98977.91;;;12.73;80.62
50226;BME280;36113;50.742;6.432;2023-05-23T03:40:36;99010.56;;;12.89;80.56
50226;BME280;36113;50.742;6.432;2023-05-23T03:43:05;99022.81;;;12.91;80.65
50226;BME280;36113;50.742;6.432;2023-05-23T03:45:31;98998.59;;;12.79;80.85
50226;BME280;36113;50.742;6.432;2023-05-23T03:47:57;99029.91;;;12.92;80.90
50226;BME280;36113;50.742;6.432;2023-05-23T03:50:23;98980.19;;;12.56;81.32
50226;BME280;36113;50.742;6.432;2023-05-23T03:52:48;99031.38;;;12.69;82.15
50226;BME280;36113;50.742;6.432;2023-05-23T03:55:13;99017.53;;;12.60;82.28
50226;BME280;36113;50.742;6.432;2023-05-23T03:57:38;98988.16;;;12.42;82.10
50226;BME280;36113;50.742;6.432;2023-05-23T04:00:04;98995.50;;;12.47;81.73
50226;BME280;36113;50.742;6.432;2023-05-23T04:02:30;99034.34;;;12.73;81.56
50226;BME280;36113;50.742;6.432;2023-05-23T04:04:56;99028.47;;;12.55;81.41
50226;BME280;36113;50.742;6.432;2023-05-23T04:07:22;99021.94;;;12.51;82.05
50226;BME280;36113;50.742;6.432;2023-05-23T04:09:47;99037.16;;;12.57;82.15
50226;BME280;36113;50.742;6.432;2023-05-23T04:12:13;99037.13;;;12.68;81.65
50226;BME280;36113;50.742;6.432;2023-05-23T04:14:38;99024.91;;;12.50;81.47
50226;BME280;36113;50.742;6.432;2023-05-23T04:17:03;99046.72;;;12.55;81.69
50226;BME280;36113;50.742;6.432;2023-05-23T04:19:29;99039.91;;;12.52;81.64
50226;BME280;36113;50.742;6.432;2023-05-23T04:21:55;99019.22;;;12.41;81.78
50226;BME280;36113;50.742;6.432;2023-05-23T04:24:20;99042.88;;;12.61;81.51
50226;BME280;36113;50.742;6.432;2023-05-23T04:26:45;99032.25;;;12.54;81.23
50226;BME280;36113;50.742;6.432;2023-05-23T04:29:11;99040.72;;;12.58;81.12
50226;BME280;36113;50.742;6.432;2023-05-23T04:31:36;99001.59;;;12.18;81.58
50226;BME280;36113;50.742;6.432;2023-05-23T04:34:02;99022.25;;;12.24;82.08
50226;BME280;36113;50.742;6.432;2023-05-23T04:36:27;99058.75;;;12.43;82.61
50226;BME280;36113;50.742;6.432;2023-05-23T04:38:54;99018.44;;;12.30;82.25
50226;BME280;36113;50.742;6.432;2023-05-23T04:41:19;99030.66;;;12.53;82.02
50226;BME280;36113;50.742;6.432;2023-05-23T04:43:47;99037.72;;;12.54;82.09
50226;BME280;36113;50.742;6.432;2023-05-23T04:46:13;99043.41;;;12.63;81.81
50226;BME280;36113;50.742;6.432;2023-05-23T04:48:38;98997.69;;;12.39;81.17
50226;BME280;36113;50.742;6.432;2023-05-23T04:51:03;99039.84;;;12.68;81.44
50226;BME280;36113;50.742;6.432;2023-05-23T04:53:33;99040.44;;;12.54;81.29
50226;BME280;36113;50.742;6.432;2023-05-23T04:55:59;99029.84;;;12.48;81.57
50226;BME280;36113;50.742;6.432;2023-05-23T04:58:24;99022.75;;;12.47;81.43
50226;BME280;36113;50.742;6.432;2023-05-23T05:00:49;99032.25;;;12.54;81.30
50226;BME280;36113;50.742;6.432;2023-05-23T05:03:15;99039.06;;;12.57;81.49
50226;BME280;36113;50.742;6.432;2023-05-23T05:05:40;99037.13;;;12.68;80.73
50226;BME280;36113;50.742;6.432;2023-05-23T05:08:05;99048.28;;;12.66;80.70
50226;BME280;36113;50.742;6.432;2023-05-23T05:10:31;99012.16;;;12.40;80.63
50226;BME280;36113;50.742;6.432;2023-05-23T05:12:57;98996.03;;;12.43;80.39
50226;BME280;36113;50.742;6.432;2023-05-23T05:15:22;99019.72;;;12.53;80.29
50226;BME280;36113;50.742;6.432;2023-05-23T05:17:47;99047.19;;;12.72;80.26
50226;BME280;36113;50.742;6.432;2023-05-23T05:20:13;99057.34;;;12.56;80.82
50226;BME280;36113;50.742;6.432;2023-05-23T05:22:39;99051.06;;;12.61;80.59
50226;BME280;36113;50.742;6.432;2023-05-23T05:25:08;99061.13;;;12.66;80.52
50226;BME280;36113;50.742;6.432;2023-05-23T05:27:34;99027.34;;;12.56;80.14
50226;BME280;36113;50.742;6.432;2023-05-23T05:30:04;99058.06;;;12.77;80.19
50226;BME280;36113;50.742;6.432;2023-05-23T05:32:30;98997.69;;;12.39;79.95
50226;BME280;36113;50.742;6.432;2023-05-23T05:35:00;99005.25;;;12.58;79.65
50226;BME280;36113;50.742;6.432;2023-05-23T05:37:26;99005.03;;;12.49;79.91
50226;BME280;36113;50.742;6.432;2023-05-23T05:39:51;99058.09;;;12.72;79.81
50226;BME280;36113;50.742;6.432;2023-05-23T05:42:18;99069.28;;;12.76;79.56
50226;BME280;36113;50.742;6.432;2023-05-23T05:44:44;99066.25;;;12.82;79.27
50226;BME280;36113;50.742;6.432;2023-05-23T05:47:09;99073.84;;;12.86;79.37
50226;BME280;36113;50.742;6.432;2023-05-23T05:49:35;99034.97;;;12.65;79.36
50226;BME280;36113;50.742;6.432;2023-05-23T05:52:00;99078.47;;;12.95;79.65
50226;BME280;36113;50.742;6.432;2023-05-23T05:54:25;99073.25;;;12.99;79.26
50226;BME280;36113;50.742;6.432;2023-05-23T05:56:50;99031.63;;;12.73;78.80
50226;BME280;36113;50.742;6.432;2023-05-23T05:59:16;99069.19;;;12.91;78.74
50226;BME280;36113;50.742;6.432;2023-05-23T06:01:41;99056.16;;;12.78;78.57
50226;BME280;36113;50.742;6.432;2023-05-23T06:04:08;99086.88;;;12.99;78.74
50226;BME280;36113;50.742;6.432;2023-05-23T06:06:34;99025.69;;;12.60;78.49
50226;BME280;36113;50.742;6.432;2023-05-23T06:08:59;99059.97;;;12.82;78.46
50226;BME280;36113;50.742;6.432;2023-05-23T06:11:24;99042.31;;;12.64;78.47
50226;BME280;36113;50.742;6.432;2023-05-23T06:13:50;99095.09;;;12.94;78.51
50226;BME280;36113;50.742;6.432;2023-05-23T06:16:16;99032.28;;;12.44;79.26
50226;BME280;36113;50.742;6.432;2023-05-23T06:18:41;99103.28;;;12.94;79.06
50226;BME280;36113;50.742;6.432;2023-05-23T06:21:08;99074.22;;;12.69;79.10
50226;BME280;36113;50.742;6.432;2023-05-23T06:23:33;99027.91;;;12.48;78.55
50226;BME280;36113;50.742;6.432;2023-05-23T06:25:58;99060.84;;;12.67;78.45
50226;BME280;36113;50.742;6.432;2023-05-23T06:28:24;99031.19;;;12.55;78.33
50226;BME280;36113;50.742;6.432;2023-05-23T06:30:49;99099.72;;;12.98;78.48
50226;BME280;36113;50.742;6.432;2023-05-23T06:33:15;99071.47;;;12.74;78.42
50226;BME280;36113;50.742;6.432;2023-05-23T06:35:40;99103.81;;;13.01;78.23
50226;BME280;36113;50.742;6.432;2023-05-23T06:38:06;99069.81;;;12.73;77.86
50226;BME280;36113;50.742;6.432;2023-05-23T06:40:32;99116.66;;;12.90;78.30
50226;BME280;36113;50.742;6.432;2023-05-23T06:42:57;99112.06;;;12.86;78.42
50226;BME280;36113;50.742;6.432;2023-05-23T06:45:23;99108.47;;;12.90;78.35
50226;BME280;36113;50.742;6.432;2023-05-23T06:47:48;99119.66;;;12.94;78.39
50226;BME280;36113;50.742;6.432;2023-05-23T06:50:13;99123.78;;;12.86;78.99
50226;BME280;36113;50.742;6.432;2023-05-23T06:52:39;99118.00;;;12.98;78.22
50226;BME280;36113;50.742;6.432;2023-05-23T06:55:06;99125.88;;;13.10;77.95
50226;BME280;36113;50.742;6.432;2023-05-23T06:57:32;99063.03;;;12.65;77.76
50226;BME280;36113;50.742;6.432;2023-05-23T06:59:57;99095.94;;;12.89;77.65
50226;BME280;36113;50.742;6.432;2023-05-23T07:02:22;99131.81;;;13.22;77.43
50226;BME280;36113;50.742;6.432;2023-05-23T07:04:48;99129.34;;;13.25;77.42
50226;BME280;36113;50.742;6.432;2023-05-23T07:07:13;99083.63;;;12.97;77.30
50226;BME280;36113;50.742;6.432;2023-05-23T07:09:39;99131.03;;;13.16;77.46
50226;BME280;36113;50.742;6.432;2023-05-23T07:12:05;99095.03;;;13.09;76.97
50226;BME280;36113;50.742;6.432;2023-05-23T07:14:31;99143.78;;;13.36;77.18
50226;BME280;36113;50.742;6.432;2023-05-23T07:16:56;99098.09;;;12.97;77.38
50226;BME280;36113;50.742;6.432;2023-05-23T07:19:21;99130.44;;;13.24;77.01
50226;BME280;36113;50.742;6.432;2023-05-23T07:21:46;99104.88;;;13.05;77.27
50226;BME280;36113;50.742;6.432;2023-05-23T07:24:12;99144.06;;;13.35;77.19
50226;BME280;36113;50.742;6.432;2023-05-23T07:26:37;99145.94;;;13.39;76.94
50226;BME280;36113;50.742;6.432;2023-05-23T07:29:03;99130.44;;;13.24;76.80
50226;BME280;36113;50.742;6.432;2023-05-23T07:31:28;99141.63;;;13.28;76.65
50226;BME280;36113;50.742;6.432;2023-05-23T07:33:53;99129.38;;;13.20;76.96
50226;BME280;36113;50.742;6.432;2023-05-23T07:36:19;99104.88;;;13.05;76.83
50226;BME280;36113;50.742;6.432;2023-05-23T07:38:44;99143.00;;;13.20;77.47
50226;BME280;36113;50.742;6.432;2023-05-23T07:41:10;99128.25;;;13.21;77.51
50226;BME280;36113;50.742;6.432;2023-05-23T07:43:35;99112.56;;;12.98;77.08
50226;BME280;36113;50.742;6.432;2023-05-23T07:46:00;99154.22;;;13.19;77.72
50226;BME280;36113;50.742;6.432;2023-05-23T07:48:25;99129.16;;;13.01;77.50
50226;BME280;36113;50.742;6.432;2023-05-23T07:50:51;99134.34;;;13.03;77.41
50226;BME280;36113;50.742;6.432;2023-05-23T07:53:19;99140.84;;;13.17;77.66
50226;BME280;36113;50.742;6.432;2023-05-23T07:55:45;99144.38;;;13.23;76.86
50226;BME280;36113;50.742;6.432;2023-05-23T07:58:10;99161.00;;;13.27;77.32
50226;BME280;36113;50.742;6.432;2023-05-23T08:00:36;99149.56;;;13.24;77.39
50226;BME280;36113;50.742;6.432;2023-05-23T08:03:02;99103.28;;;12.94;77.13
50226;BME280;36113;50.742;6.432;2023-05-23T08:05:28;99162.09;;;13.25;77.49
50226;BME280;36113;50.742;6.432;2023-05-23T08:07:53;99168.97;;;13.18;77.68
50226;BME280;36113;50.742;6.432;2023-05-23T08:10:19;99129.22;;;12.86;78.34
50226;BME280;36113;50.742;6.432;2023-05-23T08:12:44;99123.81;;;12.71;79.27
50226;BME280;36113;50.742;6.432;2023-05-23T08:15:10;99133.38;;;12.68;79.37
50226;BME280;36113;50.742;6.432;2023-05-23T08:17:35;99181.91;;;12.81;80.52
50226;BME280;36113;50.742;6.432;2023-05-23T08:20:01;99143.50;;;12.57;80.79
50226;BME280;36113;50.742;6.432;2023-05-23T08:22:27;99188.22;;;12.72;81.21
50226;BME280;36113;50.742;6.432;2023-05-23T08:24:53;99181.16;;;12.60;81.86
50226;BME280;36113;50.742;6.432;2023-05-23T08:27:18;99192.31;;;12.69;81.71
50226;BME280;36113;50.742;6.432;2023-05-23T08:29:43;99186.34;;;12.62;82.08
50226;BME280;36113;50.742;6.432;2023-05-23T08:32:09;99194.75;;;12.76;81.63
50226;BME280;36113;50.742;6.432;2023-05-23T08:34:34;99149.53;;;12.39;81.86
50226;BME280;36113;50.742;6.432;2023-05-23T08:36:59;99185.22;;;12.63;81.80
50226;BME280;36113;50.742;6.432;2023-05-23T08:39:25;99178.66;;;12.64;82.07
50226;BME280;36113;50.742;6.432;2023-05-23T08:41:51;99188.47;;;12.70;82.11
50226;BME280;36113;50.742;6.432;2023-05-23T08:44:16;99136.94;;;12.63;81.63
50226;BME280;36113;50.742;6.432;2023-05-23T08:46:45;99157.94;;;12.73;81.50
50226;BME280;36113;50.742;6.432;2023-05-23T08:49:12;99145.34;;;12.77;81.11
50226;BME280;36113;50.742;6.432;2023-05-23T08:51:41;99201.22;;;13.05;80.94
50226;BME280;36113;50.742;6.432;2023-05-23T08:54:07;99202.84;;;13.01;81.31
50226;BME280;36113;50.742;6.432;2023-05-23T08:56:34;99206.72;;;12.90;81.29
50226;BME280;36113;50.742;6.432;2023-05-23T08:58:59;99147.88;;;12.48;80.73
50226;BME280;36113;50.742;6.432;2023-05-23T09:01:25;99215.50;;;12.61;82.05
50226;BME280;36113;50.742;6.432;2023-05-23T09:03:51;99149.28;;;12.25;82.06
50226;BME280;36113;50.742;6.432;2023-05-23T09:06:19;99220.13;;;12.61;82.60
50226;BME280;36113;50.742;6.432;2023-05-23T09:08:45;99208.13;;;12.67;81.98
50226;BME280;36113;50.742;6.432;2023-05-23T09:11:11;99178.44;;;12.45;82.26
50226;BME280;36113;50.742;6.432;2023-05-23T09:13:38;99222.00;;;12.81;82.03
50226;BME280;36113;50.742;6.432;2023-05-23T09:16:06;99169.44;;;12.50;81.60
50226;BME280;36113;50.742;6.432;2023-05-23T09:18:37;99232.13;;;12.80;81.34
50226;BME280;36113;50.742;6.432;2023-05-23T09:21:03;99210.59;;;12.69;81.11
50226;BME280;36113;50.742;6.432;2023-05-23T09:23:32;99175.97;;;12.54;80.86
50226;BME280;36113;50.742;6.432;2023-05-23T09:26:08;99214.69;;;12.71;80.87
50226;BME280;36113;50.742;6.432;2023-05-23T09:28:35;99225.06;;;12.54;80.74
50226;BME280;36113;50.742;6.432;2023-05-23T09:31:03;99238.97;;;12.52;81.09
50226;BME280;36113;50.742;6.432;2023-05-23T09:33:38;99244.44;;;12.47;81.22
50226;BME280;36113;50.742;6.432;2023-05-23T09:36:06;99146.00;;;11.87;81.31
50226;BME280;36113;50.742;6.432;2023-05-23T09:38:36;99243.88;;;12.25;82.05
50226;BME280;36113;50.742;6.432;2023-05-23T09:41:02;99250.66;;;12.22;82.21
50226;BME280;36113;50.742;6.432;2023-05-23T09:43:27;99222.03;;;11.99;81.67
50226;BME280;36113;50.742;6.432;2023-05-23T09:45:53;99251.75;;;12.06;82.07
50226;BME280;36113;50.742;6.432;2023-05-23T09:48:27;99244.69;;;12.05;81.96
50226;BME280;36113;50.742;6.432;2023-05-23T09:50:53;99195.28;;;11.65;82.21
50226;BME280;36113;50.742;6.432;2023-05-23T09:53:18;99244.41;;;12.21;81.50
50226;BME280;36113;50.742;6.432;2023-05-23T09:55:45;99202.72;;;12.00;81.22
50226;BME280;36113;50.742;6.432;2023-05-23T09:58:12;99203.25;;;12.38;80.91
50226;BME280;36113;50.742;6.432;2023-05-23T10:00:39;99236.97;;;12.99;79.45
50226;BME280;36113;50.742;6.432;2023-05-23T10:03:11;99243.44;;;13.44;78.54
50226;BME280;36113;50.742;6.432;2023-05-23T10:08:18;99223.47;;;13.49;77.03
50226;BME280;36113;50.742;6.432;2023-05-23T10:11:08;99234.59;;;13.62;76.42
50226;BME280;36113;50.742;6.432;2023-05-23T10:13:45;99142.28;;;13.04;75.91
50226;BME280;36113;50.742;6.432;2023-05-23T10:16:18;99217.88;;;13.69;75.08
50226;BME280;36113;50.742;6.432;2023-05-23T10:18:47;99248.00;;;14.08;74.83
50226;BME280;36113;50.742;6.432;2023-05-23T10:21:18;99081.13;;;13.11;73.28
50226;BME280;36113;50.742;6.432;2023-05-23T10:23:47;99211.47;;;13.89;73.53
50226;BME280;36113;50.742;6.432;2023-05-23T10:26:12;99234.03;;;14.44;72.48
50226;BME280;36113;50.742;6.432;2023-05-23T10:28:39;99243.84;;;14.51;71.27
50226;BME280;36113;50.742;6.432;2023-05-23T10:31:06;99238.25;;;14.66;70.81
50226;BME280;36113;50.742;6.432;2023-05-23T10:33:34;99238.00;;;14.92;70.05
50226;BME280;36113;50.742;6.432;2023-05-23T10:36:21;99239.66;;;15.17;69.36
50226;BME280;36113;50.742;6.432;2023-05-23T10:39:18;99248.16;;;15.39;67.99
50226;BME280;36113;50.742;6.432;2023-05-23T10:41:50;99256.00;;;15.70;66.75
50226;BME280;36113;50.742;6.432;2023-05-23T10:44:30;99197.19;;;15.19;66.23
50226;BME280;36113;50.742;6.432;2023-05-23T10:46:57;99247.81;;;15.65;65.87
50226;BME280;36113;50.742;6.432;2023-05-23T10:49:44;99252.91;;;15.52;65.89
50226;BME280;36113;50.742;6.432;2023-05-23T10:52:15;99254.84;;;15.95;65.36
50226;BME280;36113;50.742;6.432;2023-05-23T10:54:43;99255.47;;;16.44;64.11
50226;BME280;36113;50.742;6.432;2023-05-23T10:57:10;99260.59;;;16.50;63.37
50226;BME280;36113;50.742;6.432;2023-05-23T10:59:38;99256.00;;;16.27;63.07
50226;BME280;36113;50.742;6.432;2023-05-23T11:02:11;99208.16;;;15.81;63.19
50226;BME280;36113;50.742;6.432;2023-05-23T11:04:37;99254.53;;;16.16;62.74
50226;BME280;36113;50.742;6.432;2023-05-23T11:07:03;99271.88;;;16.30;62.49
50226;BME280;36113;50.742;6.432;2023-05-23T11:09:28;99265.13;;;16.22;62.32
50226;BME280;36113;50.742;6.432;2023-05-23T11:14:33;99225.06;;;16.07;61.55
50226;BME280;36113;50.742;6.432;2023-05-23T11:19:37;99267.66;;;15.81;61.45
50226;BME280;36113;50.742;6.432;2023-05-23T11:22:03;99276.69;;;16.00;61.87
50226;BME280;36113;50.742;6.432;2023-05-23T11:27:14;99271.94;;;16.25;60.96
50226;BME280;36113;50.742;6.432;2023-05-23T11:29:39;99222.56;;;16.44;58.88
50226;BME280;36113;50.742;6.432;2023-05-23T11:32:11;99255.13;;;16.64;58.71
50226;BME280;36113;50.742;6.432;2023-05-23T11:34:38;99268.56;;;16.66;57.81
50226;BME280;36113;50.742;6.432;2023-05-23T11:37:03;99233.16;;;16.64;57.39
50226;BME280;36113;50.742;6.432;2023-05-23T11:39:29;99266.47;;;16.76;56.80
50226;BME280;36113;50.742;6.432;2023-05-23T11:42:02;99266.22;;;16.40;58.38
50226;BME280;36113;50.742;6.432;2023-05-23T11:44:27;99263.00;;;16.00;58.61
50226;BME280;36113;50.742;6.432;2023-05-23T11:47:03;99269.16;;;15.68;59.26
50226;BME280;36113;50.742;6.432;2023-05-23T11:49:34;99222.63;;;15.20;60.52
50226;BME280;36113;50.742;6.432;2023-05-23T11:52:05;99267.78;;;15.22;60.79
50226;BME280;36113;50.742;6.432;2023-05-23T11:54:30;99256.63;;;14.89;60.87
50226;BME280;36113;50.742;6.432;2023-05-23T11:56:56;99274.47;;;15.11;60.05
50226;BME280;36113;50.742;6.432;2023-05-23T11:59:23;99283.22;;;15.13;60.54
50226;BME280;36113;50.742;6.432;2023-05-23T12:01:50;99263.97;;;15.23;60.75
50226;BME280;36113;50.742;6.432;2023-05-23T12:04:15;99261.88;;;15.34;60.48
50226;BME280;36113;50.742;6.432;2023-05-23T12:06:41;99285.63;;;15.44;60.49
50226;BME280;36113;50.742;6.432;2023-05-23T12:09:10;99290.50;;;15.47;60.63
50226;BME280;36113;50.742;6.432;2023-05-23T12:11:36;99281.03;;;15.63;59.88
50226;BME280;36113;50.742;6.432;2023-05-23T12:14:01;99273.09;;;15.62;59.57
50226;BME280;36113;50.742;6.432;2023-05-23T12:16:31;99228.66;;;15.41;60.20
50226;BME280;36113;50.742;6.432;2023-05-23T12:18:57;99247.66;;;15.56;59.98
50226;BME280;36113;50.742;6.432;2023-05-23T12:21:25;99290.53;;;15.71;59.02
50226;BME280;36113;50.742;6.432;2023-05-23T12:23:50;99236.16;;;15.11;59.74
50226;BME280;36113;50.742;6.432;2023-05-23T12:26:16;99271.06;;;15.24;60.39
50226;BME280;36113;50.742;6.432;2023-05-23T12:28:42;99279.97;;;15.11;60.47
50226;BME280;36113;50.742;6.432;2023-05-23T12:31:20;99271.09;;;14.95;60.91
50226;BME280;36113;50.742;6.432;2023-05-23T12:33:47;99200.41;;;14.44;61.47
50226;BME280;36113;50.742;6.432;2023-05-23T12:36:12;99290.78;;;14.68;61.50
50226;BME280;36113;50.742;6.432;2023-05-23T12:38:38;99235.78;;;14.30;61.53
50226;BME280;36113;50.742;6.432;2023-05-23T12:41:14;99264.31;;;14.53;61.06
50226;BME280;36113;50.742;6.432;2023-05-23T12:43:40;99234.09;;;14.39;61.40
50226;BME280;36113;50.742;6.432;2023-05-23T12:46:06;99284.25;;;14.93;61.54
50226;BME280;36113;50.742;6.432;2023-05-23T12:48:32;99280.50;;;14.84;61.18
50226;BME280;36113;50.742;6.432;2023-05-23T12:50:58;99286.50;;;14.86;61.62
50226;BME280;36113;50.742;6.432;2023-05-23T12:53:25;99290.47;;;14.69;61.70
50226;BME280;36113;50.742;6.432;2023-05-23T12:55:51;99283.13;;;14.94;61.76
50226;BME280;36113;50.742;6.432;2023-05-23T12:58:16;99270.78;;;15.26;61.08
50226;BME280;36113;50.742;6.432;2023-05-23T13:00:42;99245.59;;;15.48;60.61
50226;BME280;36113;50.742;6.432;2023-05-23T13:03:07;99291.38;;;16.09;59.13
50226;BME280;36113;50.742;6.432;2023-05-23T13:05:32;99298.00;;;16.27;58.02
50226;BME280;36113;50.742;6.432;2023-05-23T13:07:58;99290.25;;;16.29;57.48
50226;BME280;36113;50.742;6.432;2023-05-23T13:10:23;99278.31;;;15.82;56.68
50226;BME280;36113;50.742;6.432;2023-05-23T13:12:49;99277.81;;;15.99;56.08
50226;BME280;36113;50.742;6.432;2023-05-23T13:15:14;99266.19;;;16.07;56.77